createdAt,value
2022-08-04T00:02:18.813Z,22.90
2022-08-04T00:05:30.740Z,22.84
2022-08-04T00:08:45.661Z,22.77
2022-08-04T00:11:49.562Z,22.83
2022-08-04T00:14:58.041Z,22.81
2022-08-04T00:18:05.193Z,22.69
2022-08-04T00:21:12.620Z,22.63
2022-08-04T00:24:19.829Z,22.70
2022-08-04T00:27:22.444Z,22.69
2022-08-04T00:30:25.259Z,22.60
2022-08-04T00:33:27.570Z,22.59
2022-08-04T00:36:30.831Z,22.71
2022-08-04T00:39:34.575Z,22.63
2022-08-04T00:42:59.207Z,22.73
2022-08-04T00:46:20.551Z,22.84
2022-08-04T00:49:38.150Z,22.74
2022-08-04T00:52:46.429Z,22.74
2022-08-04T00:56:03.642Z,22.68
2022-08-04T01:00:00.310Z,22.53
2022-08-04T01:03:33.372Z,22.53
2022-08-04T01:07:07.655Z,22.45
2022-08-04T01:10:23.163Z,22.39
2022-08-04T01:13:38.992Z,22.33
2022-08-04T01:16:52.173Z,22.25
2022-08-04T01:20:02.394Z,22.22
2022-08-04T01:23:29.820Z,22.17
2022-08-04T01:26:57.325Z,22.15
2022-08-04T01:30:01.818Z,22.12
2022-08-04T01:33:08.921Z,22.18
2022-08-04T01:36:12.829Z,22.09
2022-08-04T01:39:34.444Z,22.05
2022-08-04T01:42:37.377Z,22.01
2022-08-04T01:45:41.445Z,21.96
2022-08-04T01:48:53.191Z,21.95
2022-08-04T01:51:56.598Z,21.92
2022-08-04T01:55:01.193Z,22.09
2022-08-04T01:58:05.549Z,22.11
2022-08-04T02:01:10.257Z,22.11
2022-08-04T02:04:23.308Z,22.21
2022-08-04T02:07:32.147Z,22.18
2022-08-04T02:11:25.887Z,22.03
2022-08-04T02:14:50.187Z,21.97
2022-08-04T02:18:01.240Z,21.90
2022-08-04T02:21:03.742Z,21.81
2022-08-04T02:24:10.053Z,21.73
2022-08-04T02:27:14.952Z,21.71
2022-08-04T02:30:19.158Z,21.73
2022-08-04T02:33:26.941Z,21.70
2022-08-04T02:36:40.721Z,21.69
2022-08-04T02:39:48.777Z,21.73
2022-08-04T02:42:53.764Z,21.73
2022-08-04T02:45:57.362Z,21.74
2022-08-04T02:49:05.927Z,21.81
2022-08-04T02:52:10.872Z,21.75
2022-08-04T02:55:14.073Z,21.72
2022-08-04T02:58:20.466Z,21.71
2022-08-04T03:01:23.844Z,21.74
2022-08-04T03:04:28.770Z,21.80
2022-08-04T03:08:08.100Z,21.82
2022-08-04T03:11:25.200Z,21.71
2022-08-04T03:15:01.590Z,21.65
2022-08-04T03:18:34.637Z,21.64
2022-08-04T03:22:03.404Z,21.63
2022-08-04T03:25:15.845Z,21.55
2022-08-04T03:28:33.506Z,21.48
2022-08-04T03:31:54.209Z,21.50
2022-08-04T03:35:28.420Z,21.58
2022-08-04T03:38:36.642Z,21.60
2022-08-04T03:41:51.668Z,21.64
2022-08-04T03:45:41.248Z,21.61
2022-08-04T03:49:04.043Z,21.59
2022-08-04T03:52:43.848Z,21.65
2022-08-04T03:56:29.846Z,21.69
2022-08-04T03:59:40.758Z,21.88
2022-08-04T04:03:09.610Z,22.25
2022-08-04T04:06:34.413Z,22.36
2022-08-04T04:09:57.201Z,22.33
2022-08-04T04:13:29.936Z,22.57
2022-08-04T04:16:59.486Z,22.70
2022-08-04T04:20:24.109Z,23.16
2022-08-04T04:23:49.344Z,23.65
2022-08-04T04:27:16.674Z,23.95
2022-08-04T04:31:13.924Z,24.27
2022-08-04T04:34:16.206Z,24.33
2022-08-04T04:37:31.316Z,24.66
2022-08-04T04:40:59.900Z,24.64
2022-08-04T04:44:30.822Z,24.50
2022-08-04T04:48:10.678Z,24.53
2022-08-04T04:51:19.259Z,24.48
2022-08-04T04:54:39.379Z,24.38
2022-08-04T04:57:53.602Z,24.31
2022-08-04T05:01:42.225Z,24.10
2022-08-04T05:05:06.735Z,24.15
2022-08-04T05:08:44.355Z,24.10
2022-08-04T05:14:30.842Z,24.25
2022-08-04T05:15:49.548Z,24.63
2022-08-04T05:19:12.413Z,25.17
2022-08-04T05:22:26.878Z,25.75
2022-08-04T05:25:37.396Z,25.68
2022-08-04T05:28:43.087Z,26.28
2022-08-04T05:31:51.115Z,26.50
2022-08-04T05:35:00.213Z,26.78
2022-08-04T05:38:03.976Z,27.41
2022-08-04T05:41:09.209Z,27.27
2022-08-04T05:44:11.918Z,26.80
2022-08-04T05:47:15.470Z,26.57
2022-08-04T05:50:18.617Z,27.56
2022-08-04T05:53:21.741Z,31.00
2022-08-04T05:56:24.745Z,33.23
2022-08-04T05:59:29.226Z,34.85
2022-08-04T06:02:32.483Z,36.05
2022-08-04T06:05:35.458Z,37.12
2022-08-04T06:08:38.979Z,38.87
2022-08-04T06:12:03.238Z,39.34
2022-08-04T06:15:07.942Z,38.13
2022-08-04T06:18:32.894Z,37.87
2022-08-04T06:21:38.767Z,37.49
2022-08-04T06:24:45.121Z,38.97
2022-08-04T06:27:49.786Z,40.29
2022-08-04T06:30:55.078Z,40.91
2022-08-04T06:33:57.716Z,40.73
2022-08-04T06:37:00.457Z,41.63
2022-08-04T06:40:04.174Z,41.61
2022-08-04T06:43:27.795Z,42.40
2022-08-04T06:46:34.229Z,43.47
2022-08-04T06:51:23.028Z,44.67
2022-08-04T06:53:01.045Z,43.82
2022-08-04T06:56:05.276Z,43.68
2022-08-04T06:59:08.423Z,42.48
2022-08-04T07:02:20.864Z,42.51
2022-08-04T07:05:23.698Z,43.32
2022-08-04T07:08:27.129Z,44.23
2022-08-04T07:11:39.478Z,44.09
2022-08-04T07:14:48.669Z,44.09
2022-08-04T07:17:52.612Z,42.76
2022-08-04T07:20:55.140Z,43.54
2022-08-04T07:23:57.181Z,45.07
2022-08-04T07:27:00.209Z,43.86
2022-08-04T07:30:06.127Z,41.45
2022-08-04T07:33:09.060Z,37.29
2022-08-04T07:36:12.538Z,35.39
2022-08-04T07:39:27.743Z,34.90
2022-08-04T07:42:31.894Z,33.67
2022-08-04T07:45:34.838Z,31.91
2022-08-04T07:48:37.005Z,31.33
2022-08-04T07:51:40.471Z,30.37
2022-08-04T07:54:43.094Z,30.24
2022-08-04T07:57:45.564Z,30.46
2022-08-04T08:00:48.094Z,30.98
2022-08-04T08:03:53.319Z,30.93
2022-08-04T08:06:57.702Z,30.54
2022-08-04T08:10:39.786Z,29.78
2022-08-04T08:13:43.962Z,29.33
2022-08-04T08:16:46.982Z,29.64
2022-08-04T08:19:49.109Z,29.92
2022-08-04T08:22:51.611Z,29.83
2022-08-04T08:25:53.792Z,29.77
2022-08-04T08:28:56.212Z,29.95
2022-08-04T08:32:05.536Z,30.01
2022-08-04T08:35:10.415Z,29.93
2022-08-04T08:38:15.716Z,30.00
2022-08-04T08:41:51.948Z,29.84
2022-08-04T08:45:17.690Z,30.04
2022-08-04T08:48:29.732Z,30.22
2022-08-04T08:51:53.510Z,29.84
2022-08-04T08:55:20.799Z,30.04
2022-08-04T08:58:41.415Z,30.21
2022-08-04T09:02:02.525Z,30.36
2022-08-04T09:05:14.608Z,30.30
2022-08-04T09:09:05.518Z,30.38
2022-08-04T09:12:39.329Z,30.32
2022-08-04T09:15:54.306Z,30.74
2022-08-04T09:19:04.479Z,31.66
2022-08-04T09:22:13.597Z,33.64
2022-08-04T09:25:28.567Z,35.30
2022-08-04T09:28:58.317Z,37.11
2022-08-04T09:32:28.174Z,38.26
2022-08-04T09:35:42.527Z,39.93
2022-08-04T09:38:58.430Z,39.46
2022-08-04T09:42:29.261Z,40.82
2022-08-04T09:46:03.592Z,42.85
2022-08-04T09:49:21.246Z,39.57
2022-08-04T09:52:47.581Z,41.04
2022-08-04T09:56:03.623Z,41.43
2022-08-04T09:59:22.354Z,41.56
2022-08-04T10:02:29.123Z,41.64
2022-08-04T10:06:00.098Z,40.75
2022-08-04T10:09:14.490Z,42.12
2022-08-04T10:12:41.681Z,44.13
2022-08-04T10:15:57.345Z,44.34
2022-08-04T10:19:26.518Z,44.00
2022-08-04T10:22:55.931Z,42.16
2022-08-04T10:26:11.406Z,42.26
2022-08-04T10:29:26.613Z,43.48
2022-08-04T10:32:43.829Z,41.41
2022-08-04T10:35:52.467Z,41.73
2022-08-04T10:39:07.380Z,43.29
2022-08-04T10:42:27.372Z,43.96
2022-08-04T10:45:57.905Z,42.65
2022-08-04T10:49:21.688Z,42.53
2022-08-04T10:52:35.910Z,43.48
2022-08-04T10:56:06.450Z,43.26
2022-08-04T10:59:16.084Z,41.97
2022-08-04T11:02:36.215Z,42.61
2022-08-04T11:05:48.612Z,41.36
2022-08-04T11:08:55.333Z,41.74
2022-08-04T11:12:16.382Z,40.61
2022-08-04T11:15:30.145Z,42.40
2022-08-04T11:19:10.149Z,43.17
2022-08-04T11:22:23.332Z,43.64
2022-08-04T11:25:32.610Z,42.42
2022-08-04T11:29:12.334Z,42.45
2022-08-04T11:32:23.022Z,42.31
2022-08-04T11:35:32.470Z,40.28
2022-08-04T11:38:52.013Z,40.65
2022-08-04T11:42:26.246Z,40.71
2022-08-04T11:45:39.715Z,39.12
2022-08-04T11:49:16.975Z,40.28
2022-08-04T11:52:21.870Z,41.05
2022-08-04T11:55:27.134Z,41.85
2022-08-04T11:58:30.731Z,40.71
2022-08-04T12:02:06.370Z,41.00
2022-08-04T12:05:10.063Z,40.34
2022-08-04T12:08:47.908Z,39.44
2022-08-04T12:12:13.702Z,40.10
2022-08-04T12:15:31.381Z,39.78
2022-08-04T12:18:40.387Z,41.25
2022-08-04T12:21:48.118Z,41.35
2022-08-04T12:25:03.911Z,41.50
2022-08-04T12:28:15.756Z,42.59
2022-08-04T12:31:26.510Z,40.96
2022-08-04T12:34:54.965Z,41.47
2022-08-04T12:38:04.596Z,41.79
2022-08-04T12:41:08.215Z,42.08
2022-08-04T12:44:36.914Z,41.45
2022-08-04T12:47:38.031Z,41.08
2022-08-04T12:50:42.161Z,38.53
2022-08-04T12:53:51.027Z,39.09
2022-08-04T12:56:58.247Z,40.54
2022-08-04T13:00:00.402Z,41.77
2022-08-04T13:03:10.211Z,40.29
2022-08-04T13:06:19.693Z,40.00
2022-08-04T13:09:30.271Z,40.43
2022-08-04T13:12:34.147Z,39.58
2022-08-04T13:15:47.216Z,38.61
2022-08-04T13:18:59.938Z,38.02
2022-08-04T13:22:08.389Z,37.22
2022-08-04T13:25:18.006Z,37.40
2022-08-04T13:28:34.984Z,37.61
2022-08-04T13:31:37.835Z,37.47
2022-08-04T13:34:42.746Z,37.17
2022-08-04T13:37:54.505Z,36.85
2022-08-04T13:40:59.912Z,36.26
2022-08-04T13:44:18.306Z,36.00
2022-08-04T13:47:30.402Z,35.99
2022-08-04T13:50:33.573Z,36.01
2022-08-04T13:53:37.984Z,35.92
2022-08-04T13:56:47.017Z,36.29
2022-08-04T13:59:54.671Z,36.01
2022-08-04T14:03:03.436Z,36.22
2022-08-04T14:06:25.878Z,35.53
2022-08-04T14:09:34.821Z,35.45
2022-08-04T14:12:47.284Z,35.27
2022-08-04T14:16:02.660Z,35.17
2022-08-04T14:19:06.746Z,35.02
2022-08-04T14:22:27.532Z,35.43
2022-08-04T14:25:35.764Z,35.17
2022-08-04T14:29:25.578Z,34.51
2022-08-04T14:32:13.879Z,34.90
2022-08-04T14:35:50.522Z,35.10
2022-08-04T14:38:57.360Z,34.68
2022-08-04T14:42:02.904Z,34.11
2022-08-04T14:45:05.858Z,34.43
2022-08-04T14:48:11.852Z,34.55
2022-08-04T14:51:15.171Z,34.35
2022-08-04T14:54:25.484Z,33.78
2022-08-04T14:57:27.931Z,34.11
2022-08-04T15:00:32.800Z,34.13
2022-08-04T15:03:39.126Z,34.16
2022-08-04T15:06:53.430Z,34.17
2022-08-04T15:09:56.340Z,34.17
2022-08-04T15:12:59.110Z,34.02
2022-08-04T15:16:07.898Z,33.60
2022-08-04T15:19:10.643Z,33.86
2022-08-04T15:22:17.275Z,33.61
2022-08-04T15:25:20.263Z,33.74
2022-08-04T15:28:25.206Z,33.94
2022-08-04T15:32:06.308Z,33.84
2022-08-04T15:34:52.462Z,33.76
2022-08-04T15:37:57.494Z,33.56
2022-08-04T15:41:08.034Z,33.57
2022-08-04T15:44:35.173Z,33.44
2022-08-04T15:47:37.725Z,33.33
2022-08-04T15:51:02.851Z,33.42
2022-08-04T15:54:08.726Z,33.43
2022-08-04T15:57:58.184Z,33.37
2022-08-04T16:01:00.523Z,33.07
2022-08-04T16:04:21.647Z,33.09
2022-08-04T16:07:57.327Z,33.06
2022-08-04T16:10:59.874Z,33.19
2022-08-04T16:14:01.969Z,33.11
2022-08-04T16:17:15.335Z,32.99
2022-08-04T16:20:18.477Z,32.90
2022-08-04T16:24:02.141Z,32.80
2022-08-04T16:27:12.558Z,32.86
2022-08-04T16:30:15.273Z,32.74
2022-08-04T16:33:17.589Z,32.85
2022-08-04T16:36:58.374Z,32.74
2022-08-04T16:40:34.700Z,32.58
2022-08-04T16:43:38.162Z,32.55
2022-08-04T16:47:01.448Z,32.39
2022-08-04T16:50:05.446Z,32.35
2022-08-04T16:53:14.474Z,32.25
2022-08-04T16:56:35.242Z,32.12
2022-08-04T16:59:38.209Z,31.94
2022-08-04T17:02:41.140Z,31.78
2022-08-04T17:05:43.555Z,31.60
2022-08-04T17:08:48.818Z,31.58
2022-08-04T17:11:53.553Z,31.65
2022-08-04T17:14:57.427Z,31.65
2022-08-04T17:18:24.344Z,31.52
2022-08-04T17:21:31.531Z,31.30
2022-08-04T17:24:36.771Z,31.08
2022-08-04T17:28:09.587Z,30.85
2022-08-04T17:31:06.552Z,30.62
2022-08-04T17:34:19.489Z,30.47
2022-08-04T17:37:38.947Z,30.24
2022-08-04T17:41:19.448Z,30.08
2022-08-04T17:44:38.959Z,29.87
2022-08-04T17:47:52.502Z,29.74
2022-08-04T17:50:54.628Z,29.51
2022-08-04T17:54:03.099Z,29.39
2022-08-04T17:57:22.676Z,29.33
2022-08-04T18:00:25.128Z,29.17
2022-08-04T18:03:35.851Z,29.01
2022-08-04T18:06:38.353Z,28.88
2022-08-04T18:09:57.842Z,28.76
2022-08-04T18:13:15.736Z,28.63
2022-08-04T18:16:22.222Z,28.49
2022-08-04T18:19:25.466Z,28.35
2022-08-04T18:22:28.780Z,28.27
2022-08-04T18:25:51.180Z,28.16
2022-08-04T18:28:53.590Z,28.00
2022-08-04T18:31:55.731Z,27.91
2022-08-04T18:35:05.423Z,27.85
2022-08-04T18:38:11.422Z,27.76
2022-08-04T18:41:27.715Z,27.74
2022-08-04T18:44:31.587Z,27.77
2022-08-04T18:51:08.684Z,27.54
2022-08-04T18:54:13.943Z,27.44
2022-08-04T18:57:32.717Z,27.33
2022-08-04T19:00:46.170Z,27.26
2022-08-04T19:03:54.488Z,27.19
2022-08-04T19:10:26.731Z,27.01
2022-08-04T19:13:34.804Z,26.93
2022-08-04T19:16:37.969Z,26.85
2022-08-04T19:19:47.747Z,26.75
2022-08-04T19:24:29.531Z,26.80
2022-08-04T19:26:27.942Z,26.68
2022-08-04T19:32:53.047Z,26.60
2022-08-04T19:35:55.194Z,26.65
2022-08-04T19:38:59.057Z,26.65
2022-08-04T19:42:04.320Z,26.64
2022-08-04T19:45:15.952Z,26.51
2022-08-04T19:48:20.165Z,26.40
2022-08-04T19:51:22.776Z,26.45
2022-08-04T19:54:30.079Z,26.42
2022-08-04T19:57:35.339Z,26.46
2022-08-04T20:00:40.563Z,26.50
2022-08-04T20:04:10.407Z,26.54
2022-08-04T20:07:14.203Z,26.45
2022-08-04T20:10:17.309Z,26.37
2022-08-04T20:13:37.213Z,26.31
2022-08-04T20:16:40.269Z,26.42
2022-08-04T20:19:42.576Z,26.36
2022-08-04T20:22:54.034Z,26.35
2022-08-04T20:25:56.280Z,26.33
2022-08-04T20:28:58.735Z,26.26
2022-08-04T20:32:05.362Z,26.14
2022-08-04T20:35:08.768Z,26.08
2022-08-04T20:38:33.080Z,25.99
2022-08-04T20:41:37.181Z,25.92
2022-08-04T20:44:42.377Z,25.81
2022-08-04T20:47:53.255Z,25.76
2022-08-04T20:50:56.870Z,25.76
2022-08-04T20:53:59.996Z,25.64
2022-08-04T20:57:02.962Z,25.60
2022-08-04T21:00:08.167Z,25.53
2022-08-04T21:03:10.280Z,25.50
2022-08-04T21:06:12.692Z,25.47
2022-08-04T21:09:15.343Z,25.43
2022-08-04T21:12:27.560Z,25.39
2022-08-04T21:15:50.769Z,25.32
2022-08-04T21:18:53.240Z,25.31
2022-08-04T21:21:55.381Z,25.33
2022-08-04T21:24:58.072Z,25.32
2022-08-04T21:28:04.655Z,25.28
2022-08-04T21:31:11.261Z,25.21
2022-08-04T21:34:37.888Z,25.29
2022-08-04T21:37:58.027Z,25.16
2022-08-04T21:41:03.387Z,25.01
2022-08-04T21:44:08.732Z,24.99
2022-08-04T21:47:14.087Z,25.10
2022-08-04T21:50:30.585Z,24.98
2022-08-04T21:53:33.033Z,25.12
2022-08-04T21:56:35.949Z,25.26
2022-08-04T21:59:45.998Z,25.42
2022-08-04T22:02:53.592Z,25.59
2022-08-04T22:05:56.723Z,25.47
2022-08-04T22:08:58.975Z,25.37
2022-08-04T22:12:03.363Z,25.33
2022-08-04T22:15:22.889Z,25.24
2022-08-04T22:18:30.576Z,25.19
2022-08-04T22:21:32.814Z,24.96
2022-08-04T22:24:41.827Z,24.91
2022-08-04T22:28:03.737Z,24.79
2022-08-04T22:31:23.243Z,24.87
2022-08-04T22:34:27.823Z,24.68
2022-08-04T22:37:35.921Z,24.55
2022-08-04T22:40:38.711Z,24.63
2022-08-04T22:43:41.751Z,24.52
2022-08-04T22:46:43.953Z,24.42
2022-08-04T22:49:56.464Z,24.33
2022-08-04T22:53:10.258Z,24.52
2022-08-04T22:56:37.333Z,24.79
2022-08-04T22:59:43.238Z,25.07
2022-08-04T23:02:45.929Z,25.15
2022-08-04T23:05:50.641Z,24.82
2022-08-04T23:08:53.544Z,24.62
2022-08-04T23:12:15.259Z,24.47
2022-08-04T23:15:18.322Z,24.30
2022-08-04T23:18:20.492Z,24.17
2022-08-04T23:21:24.272Z,24.02
2022-08-04T23:24:30.050Z,23.95
2022-08-04T23:27:40.269Z,24.07
2022-08-04T23:30:47.185Z,23.93
2022-08-04T23:33:51.823Z,23.83
2022-08-04T23:36:55.333Z,23.81
2022-08-04T23:40:15.632Z,23.90
2022-08-04T23:43:20.103Z,23.85
2022-08-04T23:46:25.617Z,23.93
2022-08-04T23:49:42.255Z,23.81
2022-08-04T23:52:49.546Z,24.05
2022-08-04T23:55:51.914Z,23.91
2022-08-04T23:58:54.506Z,23.79
